createdAt,value
2018-09-04T00:02:22.290Z,2.10
2018-09-04T00:04:50.174Z,3.57
2018-09-04T00:07:20.707Z,2.10
2018-09-04T00:09:48.908Z,2.30
2018-09-04T00:12:16.756Z,2.43
2018-09-04T00:14:44.566Z,2.10
2018-09-04T00:17:12.423Z,2.43
2018-09-04T00:19:40.254Z,1.80
2018-09-04T00:22:08.139Z,1.80
2018-09-04T00:24:35.975Z,2.30
2018-09-04T00:27:04.103Z,2.40
2018-09-04T00:29:31.938Z,2.27
2018-09-04T00:31:59.769Z,1.80
2018-09-04T00:34:27.644Z,2.10
2018-09-04T00:36:55.458Z,2.10
2018-09-04T00:39:23.323Z,2.20
2018-09-04T00:41:51.242Z,1.97
2018-09-04T00:44:19.059Z,2.00
2018-09-04T00:46:46.883Z,2.40
2018-09-04T00:49:15.241Z,2.00
2018-09-04T00:51:43.053Z,1.97
2018-09-04T00:54:10.885Z,2.27
2018-09-04T00:56:38.710Z,2.30
2018-09-04T00:59:07.466Z,2.00
2018-09-04T01:01:35.325Z,2.10
2018-09-04T01:04:03.165Z,2.40
2018-09-04T01:06:31.007Z,2.03
2018-09-04T01:08:58.833Z,1.97
2018-09-04T01:11:26.658Z,2.10
2018-09-04T01:13:54.527Z,1.93
2018-09-04T01:16:22.343Z,2.10
2018-09-04T01:18:50.190Z,2.10
2018-09-04T01:21:18.659Z,1.97
2018-09-04T01:23:46.486Z,2.17
2018-09-04T01:26:14.432Z,1.80
2018-09-04T01:28:42.576Z,2.00
2018-09-04T01:31:10.412Z,2.10
2018-09-04T01:33:38.231Z,2.53
2018-09-04T01:36:06.056Z,2.13
2018-09-04T01:38:33.877Z,2.00
2018-09-04T01:41:01.708Z,1.77
2018-09-04T01:43:29.547Z,2.20
2018-09-04T01:45:57.367Z,2.50
2018-09-04T01:48:25.200Z,2.30
2018-09-04T01:50:53.052Z,2.13
2018-09-04T01:53:21.019Z,2.97
2018-09-04T01:55:48.866Z,2.30
2018-09-04T01:58:16.706Z,1.93
2018-09-04T02:00:44.874Z,2.57
2018-09-04T02:03:13.294Z,2.63
2018-09-04T02:05:41.122Z,2.60
2018-09-04T02:08:09.908Z,2.30
2018-09-04T02:10:37.743Z,2.70
2018-09-04T02:13:05.576Z,2.53
2018-09-04T02:15:33.448Z,2.20
2018-09-04T02:18:01.405Z,2.43
2018-09-04T02:20:29.243Z,2.10
2018-09-04T02:22:57.290Z,2.07
2018-09-04T02:25:25.163Z,1.93
2018-09-04T02:27:52.993Z,2.40
2018-09-04T02:30:20.843Z,2.03
2018-09-04T02:32:48.768Z,2.30
2018-09-04T02:35:16.620Z,2.33
2018-09-04T02:37:44.467Z,2.07
2018-09-04T02:40:12.302Z,2.10
2018-09-04T02:42:40.146Z,2.37
2018-09-04T02:45:08.008Z,2.20
2018-09-04T02:47:35.846Z,2.60
2018-09-04T02:50:03.751Z,2.17
2018-09-04T02:52:31.591Z,1.90
2018-09-04T02:54:59.420Z,2.13
2018-09-04T02:57:27.288Z,2.77
2018-09-04T02:59:55.131Z,2.03
2018-09-04T03:02:22.943Z,2.40
2018-09-04T03:04:50.773Z,2.53
2018-09-04T03:07:18.918Z,2.20
2018-09-04T03:09:46.783Z,2.37
2018-09-04T03:12:14.625Z,2.50
2018-09-04T03:14:42.468Z,2.63
2018-09-04T03:17:10.292Z,2.40
2018-09-04T03:19:38.119Z,2.47
2018-09-04T03:22:05.951Z,2.40
2018-09-04T03:24:33.763Z,2.63
2018-09-04T03:27:01.617Z,2.50
2018-09-04T03:29:29.496Z,2.20
2018-09-04T03:31:57.330Z,2.20
2018-09-04T03:34:25.170Z,2.40
2018-09-04T03:36:53.020Z,2.20
2018-09-04T03:39:20.944Z,2.30
2018-09-04T03:41:48.778Z,2.40
2018-09-04T03:44:16.638Z,2.03
2018-09-04T03:46:44.516Z,3.07
2018-09-04T03:49:12.367Z,4.17
2018-09-04T03:51:40.184Z,2.90
2018-09-04T03:54:08.033Z,2.93
2018-09-04T03:56:35.848Z,3.50
2018-09-04T03:59:03.714Z,2.40
2018-09-04T04:01:31.737Z,2.67
2018-09-04T04:03:59.563Z,2.60
2018-09-04T04:06:27.383Z,2.60
2018-09-04T04:08:55.219Z,2.67
2018-09-04T04:11:23.059Z,3.20
2018-09-04T04:13:50.889Z,2.87
2018-09-04T04:16:18.727Z,2.60
2018-09-04T04:18:46.702Z,2.50
2018-09-04T04:21:14.527Z,2.87
2018-09-04T04:23:42.391Z,2.57
2018-09-04T04:26:10.809Z,2.50
2018-09-04T04:28:39.480Z,2.40
2018-09-04T04:31:08.005Z,2.57
2018-09-04T04:33:36.751Z,2.50
2018-09-04T04:36:05.055Z,3.30
2018-09-04T04:38:33.350Z,2.87
2018-09-04T04:41:01.983Z,2.90
2018-09-04T04:43:30.596Z,2.53
2018-09-04T04:45:58.996Z,3.10
2018-09-04T04:48:27.235Z,2.60
2018-09-04T04:50:55.706Z,2.97
2018-09-04T04:53:23.927Z,2.57
2018-09-04T04:55:52.163Z,3.10
2018-09-04T04:58:20.417Z,2.97
2018-09-04T05:00:48.653Z,3.00
2018-09-04T05:03:17.148Z,2.93
2018-09-04T05:05:46.169Z,3.17
2018-09-04T05:08:14.784Z,3.60
2018-09-04T05:10:42.634Z,3.50
2018-09-04T05:13:10.985Z,3.10
2018-09-04T05:15:38.822Z,3.27
2018-09-04T05:18:07.084Z,3.30
2018-09-04T05:20:35.040Z,3.40
2018-09-04T05:23:02.880Z,3.50
2018-09-04T05:25:30.707Z,3.60
2018-09-04T05:27:58.528Z,3.33
2018-09-04T05:30:26.360Z,3.80
2018-09-04T05:32:59.255Z,3.40
2018-09-04T05:35:28.649Z,3.23
2018-09-04T05:37:56.526Z,3.63
2018-09-04T05:40:24.370Z,3.87
2018-09-04T05:42:57.006Z,4.10
2018-09-04T05:45:26.599Z,3.10
2018-09-04T05:48:05.851Z,3.70
2018-09-04T05:50:33.835Z,3.30
2018-09-04T05:53:01.686Z,3.00
2018-09-04T05:55:29.530Z,6.80
2018-09-04T05:57:57.383Z,3.77
2018-09-04T06:00:29.820Z,2.97
2018-09-04T06:02:57.904Z,3.77
2018-09-04T06:05:25.742Z,3.20
2018-09-04T06:07:53.801Z,5.90
2018-09-04T06:10:22.026Z,3.67
2018-09-04T06:12:50.236Z,3.63
2018-09-04T06:15:18.879Z,3.37
2018-09-04T06:17:47.418Z,3.50
2018-09-04T06:20:15.258Z,5.90
2018-09-04T06:22:43.085Z,3.70
2018-09-04T06:25:10.911Z,3.33
2018-09-04T06:27:38.734Z,3.20
2018-09-04T06:30:06.989Z,3.07
2018-09-04T06:32:34.828Z,3.10
2018-09-04T06:35:02.695Z,3.13
2018-09-04T06:37:30.518Z,3.50
2018-09-04T06:39:58.348Z,3.40
2018-09-04T06:42:26.233Z,3.63
2018-09-04T06:44:54.112Z,3.13
2018-09-04T06:47:21.963Z,3.50
2018-09-04T06:49:49.853Z,2.63
2018-09-04T06:52:17.683Z,2.83
2018-09-04T06:54:45.562Z,3.43
2018-09-04T06:57:13.416Z,3.10
2018-09-04T06:59:41.240Z,3.00
2018-09-04T07:02:09.079Z,3.07
2018-09-04T07:04:36.899Z,3.30
2018-09-04T07:07:04.747Z,2.97
2018-09-04T07:09:32.585Z,3.60
2018-09-04T07:12:00.423Z,3.27
2018-09-04T07:14:28.576Z,3.67
2018-09-04T07:16:57.015Z,3.70
2018-09-04T07:19:24.870Z,3.50
2018-09-04T07:21:52.733Z,3.00
2018-09-04T07:24:20.590Z,3.13
2018-09-04T07:26:48.451Z,3.47
2018-09-04T07:29:16.570Z,4.07
2018-09-04T07:31:44.429Z,3.50
2018-09-04T07:34:12.248Z,3.93
2018-09-04T07:36:40.076Z,3.83
2018-09-04T07:39:08.983Z,3.47
2018-09-04T07:41:36.845Z,3.37
2018-09-04T07:44:04.913Z,3.00
2018-09-04T07:46:32.954Z,3.63
2018-09-04T07:49:00.769Z,2.83
2018-09-04T07:51:28.862Z,3.37
2018-09-04T07:53:56.792Z,3.03
2018-09-04T07:56:25.471Z,3.60
2018-09-04T07:58:53.968Z,3.70
2018-09-04T08:01:21.831Z,3.50
2018-09-04T08:03:49.750Z,3.40
2018-09-04T08:06:17.595Z,3.60
2018-09-04T08:08:45.484Z,2.63
2018-09-04T08:11:13.519Z,3.60
2018-09-04T08:13:41.414Z,3.80
2018-09-04T08:16:09.266Z,3.87
2018-09-04T08:18:37.168Z,3.27
2018-09-04T08:21:05.000Z,4.20
2018-09-04T08:23:32.828Z,3.07
2018-09-04T08:26:00.716Z,3.20
2018-09-04T08:28:28.525Z,3.50
2018-09-04T08:30:56.342Z,2.90
2018-09-04T08:33:24.209Z,3.10
2018-09-04T08:35:52.259Z,3.47
2018-09-04T08:38:20.160Z,2.97
2018-09-04T08:40:47.990Z,3.10
2018-09-04T08:43:16.151Z,2.77
2018-09-04T08:45:44.012Z,3.17
2018-09-04T08:48:18.254Z,3.90
2018-09-04T08:50:46.225Z,3.17
2018-09-04T08:53:14.418Z,2.80
2018-09-04T08:55:42.247Z,3.33
2018-09-04T08:58:10.079Z,4.77
2018-09-04T09:00:37.913Z,3.03
2018-09-04T09:03:05.920Z,2.37
2018-09-04T09:05:33.819Z,3.23
2018-09-04T09:08:01.649Z,3.43
2018-09-04T09:10:29.483Z,3.47
2018-09-04T09:12:57.319Z,3.33
2018-09-04T09:15:25.167Z,3.20
2018-09-04T09:17:53.048Z,2.83
2018-09-04T09:20:20.885Z,2.90
2018-09-04T09:22:48.765Z,2.73
2018-09-04T09:25:16.630Z,2.23
2018-09-04T09:27:44.527Z,2.30
2018-09-04T09:30:13.171Z,2.20
2018-09-04T09:32:41.015Z,1.90
2018-09-04T09:35:08.865Z,2.50
2018-09-04T09:37:36.688Z,2.20
2018-09-04T09:40:04.569Z,2.90
2018-09-04T09:42:32.486Z,2.30
2018-09-04T09:45:00.437Z,2.33
2018-09-04T09:47:28.260Z,2.27
2018-09-04T09:49:56.088Z,2.30
2018-09-04T09:52:23.918Z,2.40
2018-09-04T09:54:51.864Z,2.57
2018-09-04T09:57:20.503Z,2.33
2018-09-04T09:59:48.423Z,2.30
2018-09-04T10:02:19.640Z,2.67
2018-09-04T10:04:47.513Z,2.40
2018-09-04T10:07:15.429Z,2.20
2018-09-04T10:09:43.290Z,2.40
2018-09-04T10:12:11.243Z,2.37
2018-09-04T10:14:39.807Z,2.30
2018-09-04T10:17:09.159Z,2.13
2018-09-04T10:19:37.571Z,2.60
2018-09-04T10:22:05.804Z,2.43
2018-09-04T10:24:34.437Z,2.67
2018-09-04T10:27:03.051Z,2.17
2018-09-04T10:29:31.276Z,2.60
2018-09-04T10:31:59.731Z,2.33
2018-09-04T10:34:27.975Z,2.33
2018-09-04T10:36:56.435Z,2.27
2018-09-04T10:39:29.541Z,2.27
2018-09-04T10:41:57.374Z,2.10
2018-09-04T10:44:25.424Z,2.80
2018-09-04T10:46:53.929Z,2.23
2018-09-04T10:49:22.583Z,2.73
2018-09-04T10:51:51.014Z,2.87
2018-09-04T10:54:19.522Z,2.20
2018-09-04T10:56:48.196Z,2.67
2018-09-04T10:59:16.878Z,2.30
2018-09-04T11:01:45.206Z,2.37
2018-09-04T11:04:13.854Z,2.30
2018-09-04T11:06:42.611Z,1.93
2018-09-04T11:09:11.774Z,2.30
2018-09-04T11:11:40.815Z,2.70
2018-09-04T11:14:09.091Z,2.10
2018-09-04T11:16:37.596Z,2.10
2018-09-04T11:19:06.036Z,2.57
2018-09-04T11:21:34.651Z,2.40
2018-09-04T11:24:03.083Z,2.13
2018-09-04T11:26:31.719Z,2.00
2018-09-04T11:29:01.351Z,1.97
2018-09-04T11:31:30.051Z,2.00
2018-09-04T11:33:58.599Z,2.00
2018-09-04T11:36:27.057Z,2.37
2018-09-04T11:38:55.485Z,2.10
2018-09-04T11:41:23.930Z,2.00
2018-09-04T11:43:52.373Z,2.53
2018-09-04T11:46:20.985Z,1.80
2018-09-04T11:48:49.470Z,2.00
2018-09-04T11:51:18.095Z,1.90
2018-09-04T11:53:46.746Z,2.20
2018-09-04T11:56:19.608Z,1.97
2018-09-04T11:58:48.206Z,1.60
2018-09-04T12:01:18.396Z,2.23
2018-09-04T12:03:47.139Z,2.07
2018-09-04T12:06:15.679Z,4.80
2018-09-04T12:08:44.022Z,1.87
2018-09-04T12:11:12.464Z,2.00
2018-09-04T12:13:40.920Z,2.03
2018-09-04T12:16:09.557Z,2.10
2018-09-04T12:18:38.019Z,1.83
2018-09-04T12:21:09.716Z,2.50
2018-09-04T12:23:38.187Z,2.03
2018-09-04T12:26:07.450Z,2.17
2018-09-04T12:28:35.282Z,1.90
2018-09-04T12:31:03.942Z,1.50
2018-09-04T12:33:32.386Z,2.17
2018-09-04T12:36:01.053Z,2.00
2018-09-04T12:38:32.008Z,2.17
2018-09-04T12:41:04.420Z,2.23
2018-09-04T12:43:32.734Z,2.07
2018-09-04T12:46:01.080Z,1.83
2018-09-04T12:48:30.052Z,1.80
2018-09-04T12:50:59.411Z,1.70
2018-09-04T12:53:27.938Z,1.60
2018-09-04T12:55:56.419Z,1.70
2018-09-04T12:58:25.023Z,2.00
2018-09-04T13:00:54.211Z,1.67
2018-09-04T13:03:23.471Z,1.70
2018-09-04T13:05:51.312Z,1.73
2018-09-04T13:08:20.480Z,2.63
2018-09-04T13:10:48.355Z,3.47
2018-09-04T13:13:16.218Z,2.30
2018-09-04T13:15:46.106Z,1.97
2018-09-04T13:18:13.935Z,1.87
2018-09-04T13:20:41.743Z,1.77
2018-09-04T13:23:09.571Z,1.80
2018-09-04T13:25:37.383Z,1.67
2018-09-04T13:28:06.307Z,1.43
2018-09-04T13:30:34.265Z,1.63
2018-09-04T13:33:02.200Z,1.70
2018-09-04T13:35:30.854Z,2.00
2018-09-04T13:37:59.520Z,1.97
2018-09-04T13:40:28.244Z,1.83
2018-09-04T13:42:56.542Z,2.20
2018-09-04T13:45:25.014Z,1.70
2018-09-04T13:47:53.814Z,1.80
2018-09-04T13:50:22.264Z,2.20
2018-09-04T13:52:50.898Z,1.73
2018-09-04T13:55:19.310Z,1.90
2018-09-04T13:57:47.778Z,2.10
2018-09-04T14:00:17.200Z,1.60
2018-09-04T14:02:45.412Z,1.83
2018-09-04T14:05:14.060Z,1.87
2018-09-04T14:07:42.611Z,1.90
2018-09-04T14:10:11.156Z,2.00
2018-09-04T14:12:39.135Z,1.87
2018-09-04T14:15:07.084Z,2.00
2018-09-04T14:17:35.028Z,1.63
2018-09-04T14:20:03.120Z,2.00
2018-09-04T14:22:30.982Z,1.97
2018-09-04T14:24:58.814Z,1.73
2018-09-04T14:27:26.640Z,2.00
2018-09-04T14:30:15.531Z,1.67
2018-09-04T14:32:22.791Z,2.07
2018-09-04T14:34:50.642Z,2.10
2018-09-04T14:37:18.600Z,2.00
2018-09-04T14:39:55.584Z,1.77
2018-09-04T14:42:14.246Z,2.20
2018-09-04T14:44:43.606Z,1.77
2018-09-04T14:47:12.268Z,1.70
2018-09-04T14:49:40.152Z,2.07
2018-09-04T14:52:08.024Z,2.30
2018-09-04T14:54:35.879Z,2.20
2018-09-04T14:57:03.805Z,2.20
2018-09-04T14:59:31.719Z,2.00
2018-09-04T15:01:59.555Z,2.77
2018-09-04T15:04:27.399Z,1.93
2018-09-04T15:06:55.257Z,5.43
2018-09-04T15:09:23.126Z,2.17
2018-09-04T15:11:50.967Z,1.90
2018-09-04T15:14:18.812Z,1.93
2018-09-04T15:16:46.715Z,1.90
2018-09-04T15:19:14.545Z,2.03
2018-09-04T15:21:42.484Z,1.70
2018-09-04T15:24:10.455Z,2.50
2018-09-04T15:26:38.343Z,2.53
2018-09-04T15:29:06.402Z,1.93
2018-09-04T15:31:34.273Z,2.20
2018-09-04T15:34:02.226Z,2.10
2018-09-04T15:36:30.312Z,2.10
2018-09-04T15:38:58.162Z,1.70
2018-09-04T15:41:26.106Z,1.70
2018-09-04T15:43:53.971Z,1.80
2018-09-04T15:46:21.788Z,1.93
2018-09-04T15:48:54.691Z,1.87
2018-09-04T15:51:22.570Z,1.90
2018-09-04T15:53:50.607Z,1.77
2018-09-04T15:56:18.643Z,1.87
2018-09-04T15:58:47.222Z,1.90
2018-09-04T16:01:15.564Z,1.73
2018-09-04T16:03:44.028Z,1.87
2018-09-04T16:06:18.766Z,1.80
2018-09-04T16:08:47.462Z,2.20
2018-09-04T16:11:16.947Z,1.80
2018-09-04T16:13:45.496Z,1.73
2018-09-04T16:16:14.187Z,1.93
2018-09-04T16:18:42.929Z,2.00
2018-09-04T16:21:11.649Z,1.70
2018-09-04T16:23:40.232Z,1.77
2018-09-04T16:26:08.887Z,2.23
2018-09-04T16:28:38.131Z,1.77
2018-09-04T16:31:06.570Z,2.43
2018-09-04T16:33:34.810Z,1.83
2018-09-04T16:36:03.576Z,1.90
2018-09-04T16:38:32.011Z,1.83
2018-09-04T16:41:00.481Z,2.27
2018-09-04T16:43:29.088Z,1.90
2018-09-04T16:45:57.626Z,1.90
2018-09-04T16:48:26.149Z,1.97
2018-09-04T16:50:54.871Z,2.20
2018-09-04T16:53:23.391Z,1.73
2018-09-04T16:55:51.731Z,2.00
2018-09-04T16:58:20.320Z,2.40
2018-09-04T17:00:48.783Z,1.90
2018-09-04T17:03:17.428Z,2.00
2018-09-04T17:05:45.979Z,2.07
2018-09-04T17:08:14.368Z,2.40
2018-09-04T17:10:42.736Z,2.20
2018-09-04T17:13:11.366Z,2.70
2018-09-04T17:15:39.826Z,3.60
2018-09-04T17:18:08.438Z,3.20
2018-09-04T17:20:36.892Z,2.90
2018-09-04T17:23:05.703Z,3.30
2018-09-04T17:25:34.667Z,3.67
2018-09-04T17:28:03.073Z,2.80
2018-09-04T17:30:31.824Z,2.10
2018-09-04T17:33:00.588Z,2.20
2018-09-04T17:35:28.996Z,2.63
2018-09-04T17:37:57.534Z,2.57
2018-09-04T17:40:25.836Z,2.50
2018-09-04T17:42:54.423Z,2.33
2018-09-04T17:45:22.823Z,2.70
2018-09-04T17:47:51.534Z,2.60
2018-09-04T17:50:20.247Z,2.40
2018-09-04T17:52:48.729Z,2.20
2018-09-04T17:55:17.198Z,2.57
2018-09-04T17:57:46.432Z,2.10
2018-09-04T18:00:15.117Z,1.97
2018-09-04T18:02:43.736Z,2.33
2018-09-04T18:05:12.223Z,2.10
2018-09-04T18:07:40.771Z,2.40
2018-09-04T18:10:09.167Z,2.43
2018-09-04T18:12:37.676Z,2.10
2018-09-04T18:15:06.326Z,2.20
2018-09-04T18:17:34.942Z,1.90
2018-09-04T18:20:03.223Z,2.23
2018-09-04T18:22:31.159Z,2.30
2018-09-04T18:24:58.988Z,2.30
2018-09-04T18:27:26.824Z,2.47
2018-09-04T18:29:54.705Z,2.53
2018-09-04T18:32:22.530Z,2.63
2018-09-04T18:34:50.352Z,3.30
2018-09-04T18:37:18.184Z,3.43
2018-09-04T18:39:46.776Z,2.70
2018-09-04T18:42:15.406Z,2.70
2018-09-04T18:44:43.828Z,2.73
2018-09-04T18:47:12.267Z,2.87
2018-09-04T18:49:40.718Z,2.67
2018-09-04T18:52:09.285Z,2.80
2018-09-04T18:54:37.564Z,2.57
2018-09-04T18:57:06.208Z,2.80
2018-09-04T18:59:34.676Z,3.00
2018-09-04T19:02:03.340Z,2.60
2018-09-04T19:04:31.947Z,3.80
2018-09-04T19:07:00.568Z,2.93
2018-09-04T19:09:29.030Z,3.20
2018-09-04T19:11:57.647Z,3.17
2018-09-04T19:14:26.250Z,2.80
2018-09-04T19:16:55.480Z,2.90
2018-09-04T19:19:23.951Z,2.90
2018-09-04T19:21:52.479Z,2.70
2018-09-04T19:24:21.277Z,3.10
2018-09-04T19:26:49.655Z,2.73
2018-09-04T19:29:17.906Z,2.80
2018-09-04T19:31:46.447Z,4.00
2018-09-04T19:34:15.058Z,2.83
2018-09-04T19:36:43.644Z,3.30
2018-09-04T19:39:12.355Z,3.07
2018-09-04T19:41:40.987Z,3.20
2018-09-04T19:44:09.338Z,3.17
2018-09-04T19:46:37.988Z,3.17
2018-09-04T19:49:06.638Z,3.40
2018-09-04T19:51:35.309Z,3.67
2018-09-04T19:54:03.923Z,3.03
2018-09-04T19:56:32.750Z,3.03
2018-09-04T19:59:01.562Z,3.20
2018-09-04T20:01:29.968Z,4.03
2018-09-04T20:03:58.615Z,4.20
2018-09-04T20:06:27.411Z,3.97
2018-09-04T20:08:55.937Z,3.37
2018-09-04T20:11:24.537Z,2.77
2018-09-04T20:13:53.607Z,3.30
2018-09-04T20:16:22.474Z,2.87
2018-09-04T20:18:51.375Z,2.80
2018-09-04T20:21:19.663Z,3.00
2018-09-04T20:23:48.355Z,3.20
2018-09-04T20:26:17.118Z,3.40
2018-09-04T20:28:45.674Z,3.17
2018-09-04T20:31:14.256Z,3.00
2018-09-04T20:33:42.894Z,3.17
2018-09-04T20:36:11.504Z,3.37
2018-09-04T20:38:39.975Z,3.40
2018-09-04T20:41:08.564Z,3.20
2018-09-04T20:43:37.040Z,3.83
2018-09-04T20:46:05.680Z,3.63
2018-09-04T20:48:34.056Z,3.30
2018-09-04T20:51:02.324Z,3.10
2018-09-04T20:53:31.090Z,2.97
2018-09-04T20:55:59.607Z,3.43
2018-09-04T20:58:33.456Z,3.13
2018-09-04T21:01:06.929Z,2.70
2018-09-04T21:03:40.443Z,2.97
2018-09-04T21:06:13.831Z,3.27
2018-09-04T21:08:49.419Z,3.47
2018-09-04T21:11:17.986Z,3.30
2018-09-04T21:13:46.593Z,3.83
2018-09-04T21:16:15.227Z,2.97
2018-09-04T21:18:43.676Z,2.50
2018-09-04T21:21:12.066Z,2.90
2018-09-04T21:23:40.547Z,3.10
2018-09-04T21:26:09.262Z,3.00
2018-09-04T21:28:37.846Z,2.80
2018-09-04T21:31:06.483Z,2.77
2018-09-04T21:33:34.923Z,2.70
2018-09-04T21:36:03.542Z,3.13
2018-09-04T21:38:32.280Z,3.03
2018-09-04T21:41:01.113Z,3.30
2018-09-04T21:43:29.634Z,3.20
2018-09-04T21:45:58.078Z,3.30
2018-09-04T21:48:26.497Z,3.47
2018-09-04T21:50:54.958Z,3.63
2018-09-04T21:53:23.526Z,3.67
2018-09-04T21:55:51.820Z,3.33
2018-09-04T21:58:20.274Z,3.33
2018-09-04T22:00:48.922Z,3.77
2018-09-04T22:03:17.553Z,3.67
2018-09-04T22:05:45.956Z,3.90
2018-09-04T22:08:14.422Z,3.60
2018-09-04T22:10:42.983Z,3.07
2018-09-04T22:13:11.451Z,3.30
2018-09-04T22:15:39.754Z,3.17
2018-09-04T22:18:08.381Z,3.30
2018-09-04T22:20:37.023Z,3.80
2018-09-04T22:23:05.675Z,3.73
2018-09-04T22:25:34.087Z,3.37
2018-09-04T22:28:02.310Z,3.23
2018-09-04T22:30:30.565Z,2.93
2018-09-04T22:32:59.018Z,2.93
2018-09-04T22:35:27.479Z,2.93
2018-09-04T22:37:56.094Z,2.70
2018-09-04T22:40:24.535Z,2.77
2018-09-04T22:42:52.747Z,2.60
2018-09-04T22:45:21.270Z,2.83
2018-09-04T22:47:49.858Z,2.80
2018-09-04T22:50:23.586Z,2.80
2018-09-04T22:52:52.046Z,2.60
2018-09-04T22:55:20.455Z,2.57
2018-09-04T22:57:48.913Z,2.53
2018-09-04T23:00:17.395Z,2.70
2018-09-04T23:02:45.802Z,2.47
2018-09-04T23:05:14.520Z,2.60
2018-09-04T23:07:42.833Z,2.53
2018-09-04T23:10:11.103Z,2.93
2018-09-04T23:12:39.358Z,2.50
2018-09-04T23:15:07.834Z,2.30
2018-09-04T23:17:36.490Z,2.83
2018-09-04T23:20:05.107Z,3.00
2018-09-04T23:22:33.709Z,2.50
2018-09-04T23:25:02.157Z,2.70
2018-09-04T23:27:30.587Z,2.70
2018-09-04T23:29:59.027Z,2.60
2018-09-04T23:32:27.479Z,2.70
2018-09-04T23:34:55.978Z,2.67
2018-09-04T23:37:24.543Z,2.57
2018-09-04T23:39:53.044Z,3.17
2018-09-04T23:42:21.619Z,2.53
2018-09-04T23:44:50.073Z,2.47
2018-09-04T23:47:18.484Z,2.63
2018-09-04T23:49:46.970Z,2.83
2018-09-04T23:52:15.582Z,2.97
2018-09-04T23:54:44.039Z,2.73
2018-09-04T23:57:12.435Z,3.30
2018-09-04T23:59:40.666Z,3.33
